sensor_id;sensor_type;location;lat;lon;timestamp;noise_LAeq;noise_LA_min;noise_LA_max;noise_LA01;noise_LA95
76382;Laerm;65202;52.520;10.528;2022-11-27T00:00:04;39.56;36.13;45.89;;
76382;Laerm;65202;52.520;10.528;2022-11-27T00:02:33;38.41;35.28;45.27;;
76382;Laerm;65202;52.520;10.528;2022-11-27T00:05:20;38.08;34.99;44.77;;
76382;Laerm;65202;52.520;10.528;2022-11-27T00:08:00;38.91;35.68;47.41;;
76382;Laerm;65202;52.520;10.528;2022-11-27T00:10:32;39.33;35.44;48.03;;
76382;Laerm;65202;52.520;10.528;2022-11-27T00:13:19;47.63;34.92;68.41;;
76382;Laerm;65202;52.520;10.528;2022-11-27T00:16:03;44.01;35.20;65.13;;
76382;Laerm;65202;52.520;10.528;2022-11-27T00:18:50;46.79;35.77;64.72;;
76382;Laerm;65202;52.520;10.528;2022-11-27T00:21:32;38.70;35.82;46.33;;
76382;Laerm;65202;52.520;10.528;2022-11-27T00:24:17;39.53;35.53;48.12;;
76382;Laerm;65202;52.520;10.528;2022-11-27T00:26:49;40.15;36.11;49.72;;
76382;Laerm;65202;52.520;10.528;2022-11-27T00:29:23;37.95;34.28;47.53;;
76382;Laerm;65202;52.520;10.528;2022-11-27T00:31:59;38.39;35.48;45.82;;
76382;Laerm;65202;52.520;10.528;2022-11-27T00:34:31;36.90;35.07;40.50;;
76382;Laerm;65202;52.520;10.528;2022-11-27T00:37:00;41.90;34.64;64.17;;
76382;Laerm;65202;52.520;10.528;2022-11-27T00:39:58;39.59;35.34;50.34;;
76382;Laerm;65202;52.520;10.528;2022-11-27T00:42:32;39.12;35.49;46.65;;
76382;Laerm;65202;52.520;10.528;2022-11-27T00:45:20;38.56;35.68;46.31;;
76382;Laerm;65202;52.520;10.528;2022-11-27T00:48:01;38.20;34.79;46.65;;
76382;Laerm;65202;52.520;10.528;2022-11-27T00:50:35;38.11;35.27;56.14;;
76382;Laerm;65202;52.520;10.528;2022-11-27T00:53:18;37.92;34.68;45.93;;
76382;Laerm;65202;52.520;10.528;2022-11-27T00:55:45;39.32;34.60;55.40;;
76382;Laerm;65202;52.520;10.528;2022-11-27T00:58:18;39.85;33.99;60.58;;
76382;Laerm;65202;52.520;10.528;2022-11-27T01:00:53;41.28;35.36;56.61;;
76382;Laerm;65202;52.520;10.528;2022-11-27T01:03:33;39.65;35.92;51.68;;
76382;Laerm;65202;52.520;10.528;2022-11-27T01:06:05;39.35;35.51;48.18;;
76382;Laerm;65202;52.520;10.528;2022-11-27T01:08:38;39.82;35.18;48.12;;
76382;Laerm;65202;52.520;10.528;2022-11-27T01:11:20;39.01;35.14;46.27;;
76382;Laerm;65202;52.520;10.528;2022-11-27T01:13:48;37.95;35.23;45.60;;
76382;Laerm;65202;52.520;10.528;2022-11-27T01:16:23;37.89;35.16;44.50;;
76382;Laerm;65202;52.520;10.528;2022-11-27T01:18:54;37.65;35.01;44.92;;
76382;Laerm;65202;52.520;10.528;2022-11-27T01:22:00;38.69;35.69;45.12;;
76382;Laerm;65202;52.520;10.528;2022-11-27T01:24:45;38.17;35.42;45.93;;
76382;Laerm;65202;52.520;10.528;2022-11-27T01:27:26;38.36;34.59;45.70;;
76382;Laerm;65202;52.520;10.528;2022-11-27T01:30:01;38.57;35.17;46.34;;
76382;Laerm;65202;52.520;10.528;2022-11-27T01:32:42;38.01;34.95;45.06;;
76382;Laerm;65202;52.520;10.528;2022-11-27T01:35:16;38.16;35.09;46.06;;
76382;Laerm;65202;52.520;10.528;2022-11-27T01:37:48;37.80;34.98;45.19;;
76382;Laerm;65202;52.520;10.528;2022-11-27T01:40:23;39.07;35.15;48.49;;
76382;Laerm;65202;52.520;10.528;2022-11-27T01:42:51;38.26;35.18;47.25;;
76382;Laerm;65202;52.520;10.528;2022-11-27T01:45:23;37.59;34.85;45.71;;
76382;Laerm;65202;52.520;10.528;2022-11-27T01:48:00;37.28;34.95;45.84;;
76382;Laerm;65202;52.520;10.528;2022-11-27T01:50:38;38.21;35.39;44.91;;
76382;Laerm;65202;52.520;10.528;2022-11-27T01:53:34;37.00;34.57;40.70;;
76382;Laerm;65202;52.520;10.528;2022-11-27T01:56:04;38.23;34.85;45.87;;
76382;Laerm;65202;52.520;10.528;2022-11-27T01:58:50;37.30;33.83;45.02;;
76382;Laerm;65202;52.520;10.528;2022-11-27T02:01:20;37.40;34.87;47.29;;
76382;Laerm;65202;52.520;10.528;2022-11-27T02:03:58;37.43;34.93;44.83;;
76382;Laerm;65202;52.520;10.528;2022-11-27T02:06:35;37.23;34.74;45.21;;
76382;Laerm;65202;52.520;10.528;2022-11-27T02:09:02;38.09;35.29;44.19;;
76382;Laerm;65202;52.520;10.528;2022-11-27T02:12:03;37.51;35.02;45.27;;
76382;Laerm;65202;52.520;10.528;2022-11-27T02:15:08;37.19;34.71;45.41;;
76382;Laerm;65202;52.520;10.528;2022-11-27T02:17:59;37.23;34.96;44.56;;
76382;Laerm;65202;52.520;10.528;2022-11-27T02:30:50;37.51;34.49;44.60;;
76382;Laerm;65202;52.520;10.528;2022-11-27T02:33:20;37.36;34.88;46.26;;
76382;Laerm;65202;52.520;10.528;2022-11-27T02:36:03;37.33;34.99;44.27;;
76382;Laerm;65202;52.520;10.528;2022-11-27T02:38:45;37.85;34.96;44.86;;
76382;Laerm;65202;52.520;10.528;2022-11-27T02:41:38;38.29;35.24;51.54;;
76382;Laerm;65202;52.520;10.528;2022-11-27T02:45:16;37.28;34.65;44.64;;
76382;Laerm;65202;52.520;10.528;2022-11-27T02:47:46;36.76;34.67;44.50;;
76382;Laerm;65202;52.520;10.528;2022-11-27T02:50:33;40.22;34.53;58.45;;
76382;Laerm;65202;52.520;10.528;2022-11-27T02:53:12;38.60;34.55;50.63;;
76382;Laerm;65202;52.520;10.528;2022-11-27T02:55:45;37.31;34.72;45.29;;
76382;Laerm;65202;52.520;10.528;2022-11-27T02:58:23;37.17;34.66;44.44;;
76382;Laerm;65202;52.520;10.528;2022-11-27T03:00:56;37.39;34.69;45.02;;
76382;Laerm;65202;52.520;10.528;2022-11-27T03:03:41;37.31;34.75;45.17;;
76382;Laerm;65202;52.520;10.528;2022-11-27T03:09:53;37.80;34.89;46.04;;
76382;Laerm;65202;52.520;10.528;2022-11-27T03:12:24;37.90;35.44;46.92;;
76382;Laerm;65202;52.520;10.528;2022-11-27T03:14:53;38.48;35.87;45.87;;
76382;Laerm;65202;52.520;10.528;2022-11-27T03:32:26;36.30;32.51;43.63;;
76382;Laerm;65202;52.520;10.528;2022-11-27T03:38:14;36.52;33.34;44.13;;
76382;Laerm;65202;52.520;10.528;2022-11-27T03:41:33;37.53;33.67;44.58;;
76382;Laerm;65202;52.520;10.528;2022-11-27T03:48:19;37.71;34.70;44.08;;
76382;Laerm;65202;52.520;10.528;2022-11-27T03:58:07;37.76;34.75;56.90;;
76382;Laerm;65202;52.520;10.528;2022-11-27T04:00:45;37.05;33.65;47.66;;
76382;Laerm;65202;52.520;10.528;2022-11-27T04:03:33;37.43;33.13;45.97;;
76382;Laerm;65202;52.520;10.528;2022-11-27T04:06:22;38.24;34.70;45.99;;
76382;Laerm;65202;52.520;10.528;2022-11-27T04:08:56;38.51;34.69;48.54;;
76382;Laerm;65202;52.520;10.528;2022-11-27T04:11:30;37.43;34.61;51.13;;
76382;Laerm;65202;52.520;10.528;2022-11-27T04:13:57;37.55;34.49;45.75;;
76382;Laerm;65202;52.520;10.528;2022-11-27T04:16:31;37.25;34.57;46.34;;
76382;Laerm;65202;52.520;10.528;2022-11-27T04:18:59;37.79;34.04;48.98;;
76382;Laerm;65202;52.520;10.528;2022-11-27T04:21:30;38.52;33.40;48.23;;
76382;Laerm;65202;52.520;10.528;2022-11-27T04:23:58;37.62;34.69;44.79;;
76382;Laerm;65202;52.520;10.528;2022-11-27T04:26:25;38.41;35.17;44.89;;
76382;Laerm;65202;52.520;10.528;2022-11-27T04:28:58;37.59;34.40;45.21;;
76382;Laerm;65202;52.520;10.528;2022-11-27T04:31:31;37.92;34.87;45.11;;
76382;Laerm;65202;52.520;10.528;2022-11-27T04:34:01;38.02;34.60;45.84;;
76382;Laerm;65202;52.520;10.528;2022-11-27T04:36:45;38.07;34.44;49.34;;
76382;Laerm;65202;52.520;10.528;2022-11-27T04:39:13;38.17;35.10;51.31;;
76382;Laerm;65202;52.520;10.528;2022-11-27T04:41:41;38.22;33.84;44.61;;
76382;Laerm;65202;52.520;10.528;2022-11-27T04:44:13;37.62;35.15;43.62;;
76382;Laerm;65202;52.520;10.528;2022-11-27T04:46:44;37.17;34.80;44.48;;
76382;Laerm;65202;52.520;10.528;2022-11-27T04:49:17;37.15;34.76;43.68;;
76382;Laerm;65202;52.520;10.528;2022-11-27T04:51:46;37.74;34.37;43.81;;
76382;Laerm;65202;52.520;10.528;2022-11-27T04:54:16;37.12;34.36;43.18;;
76382;Laerm;65202;52.520;10.528;2022-11-27T04:56:47;36.99;34.41;43.63;;
76382;Laerm;65202;52.520;10.528;2022-11-27T04:59:26;37.17;33.04;44.69;;
76382;Laerm;65202;52.520;10.528;2022-11-27T05:02:05;37.46;34.73;43.57;;
76382;Laerm;65202;52.520;10.528;2022-11-27T05:04:35;37.24;34.56;45.94;;
76382;Laerm;65202;52.520;10.528;2022-11-27T05:07:02;37.68;34.59;44.56;;
76382;Laerm;65202;52.520;10.528;2022-11-27T05:12:16;38.48;34.44;46.88;;
76382;Laerm;65202;52.520;10.528;2022-11-27T05:14:48;38.57;34.71;45.40;;
76382;Laerm;65202;52.520;10.528;2022-11-27T05:17:16;40.31;35.99;50.80;;
76382;Laerm;65202;52.520;10.528;2022-11-27T05:19:46;37.58;34.80;44.11;;
76382;Laerm;65202;52.520;10.528;2022-11-27T05:22:16;38.11;34.97;44.60;;
76382;Laerm;65202;52.520;10.528;2022-11-27T05:24:47;38.33;34.76;44.07;;
76382;Laerm;65202;52.520;10.528;2022-11-27T05:27:18;37.56;34.73;44.99;;
76382;Laerm;65202;52.520;10.528;2022-11-27T05:30:04;39.29;34.37;52.95;;
76382;Laerm;65202;52.520;10.528;2022-11-27T05:32:32;37.40;34.01;52.30;;
76382;Laerm;65202;52.520;10.528;2022-11-27T05:35:00;37.60;33.98;44.10;;
76382;Laerm;65202;52.520;10.528;2022-11-27T05:37:31;36.96;33.84;45.43;;
76382;Laerm;65202;52.520;10.528;2022-11-27T05:40:01;37.75;34.07;45.47;;
76382;Laerm;65202;52.520;10.528;2022-11-27T05:42:41;37.66;34.41;44.06;;
76382;Laerm;65202;52.520;10.528;2022-11-27T05:45:36;39.98;34.83;49.18;;
76382;Laerm;65202;52.520;10.528;2022-11-27T05:48:32;37.48;34.67;44.04;;
76382;Laerm;65202;52.520;10.528;2022-11-27T05:51:07;37.65;33.29;44.46;;
76382;Laerm;65202;52.520;10.528;2022-11-27T05:53:49;37.86;33.96;45.17;;
76382;Laerm;65202;52.520;10.528;2022-11-27T05:56:21;38.36;34.23;44.87;;
76382;Laerm;65202;52.520;10.528;2022-11-27T05:59:04;37.80;33.31;43.82;;
76382;Laerm;65202;52.520;10.528;2022-11-27T06:02:06;41.24;33.43;63.71;;
76382;Laerm;65202;52.520;10.528;2022-11-27T06:04:39;50.99;34.29;69.12;;
76382;Laerm;65202;52.520;10.528;2022-11-27T06:07:48;38.12;34.67;44.65;;
76382;Laerm;65202;52.520;10.528;2022-11-27T06:10:58;46.06;34.41;65.27;;
76382;Laerm;65202;52.520;10.528;2022-11-27T06:14:01;47.49;34.04;66.11;;
76382;Laerm;65202;52.520;10.528;2022-11-27T06:16:41;38.03;33.25;56.27;;
76382;Laerm;65202;52.520;10.528;2022-11-27T06:19:13;39.39;34.71;51.15;;
76382;Laerm;65202;52.520;10.528;2022-11-27T06:21:44;39.34;35.30;47.09;;
76382;Laerm;65202;52.520;10.528;2022-11-27T06:24:26;37.90;34.38;53.26;;
76382;Laerm;65202;52.520;10.528;2022-11-27T06:27:02;38.84;34.80;47.91;;
76382;Laerm;65202;52.520;10.528;2022-11-27T06:29:33;37.50;33.63;44.17;;
76382;Laerm;65202;52.520;10.528;2022-11-27T06:32:01;37.73;34.03;45.97;;
76382;Laerm;65202;52.520;10.528;2022-11-27T06:34:38;39.58;35.63;48.12;;
76382;Laerm;65202;52.520;10.528;2022-11-27T06:37:10;38.19;34.04;50.14;;
76382;Laerm;65202;52.520;10.528;2022-11-27T06:39:42;38.45;34.80;45.35;;
76382;Laerm;65202;52.520;10.528;2022-11-27T06:42:30;38.84;34.21;57.64;;
76382;Laerm;65202;52.520;10.528;2022-11-27T06:45:56;38.40;34.56;46.45;;
76382;Laerm;65202;52.520;10.528;2022-11-27T06:48:50;40.39;35.36;59.24;;
76382;Laerm;65202;52.520;10.528;2022-11-27T06:54:20;49.17;35.82;68.69;;
76382;Laerm;65202;52.520;10.528;2022-11-27T06:56:55;39.54;35.37;48.65;;
76382;Laerm;65202;52.520;10.528;2022-11-27T06:59:23;40.50;36.25;53.73;;
76382;Laerm;65202;52.520;10.528;2022-11-27T07:01:51;40.77;36.45;55.64;;
76382;Laerm;65202;52.520;10.528;2022-11-27T07:04:20;41.59;35.92;53.60;;
76382;Laerm;65202;52.520;10.528;2022-11-27T07:07:08;45.50;36.61;59.65;;
76382;Laerm;65202;52.520;10.528;2022-11-27T07:09:55;47.35;36.62;64.65;;
76382;Laerm;65202;52.520;10.528;2022-11-27T07:12:23;43.34;35.59;60.65;;
76382;Laerm;65202;52.520;10.528;2022-11-27T07:15:00;41.72;35.66;57.38;;
76382;Laerm;65202;52.520;10.528;2022-11-27T07:17:31;49.87;36.51;68.66;;
76382;Laerm;65202;52.520;10.528;2022-11-27T07:20:09;39.80;35.70;53.17;;
76382;Laerm;65202;52.520;10.528;2022-11-27T07:22:52;40.68;35.99;53.31;;
76382;Laerm;65202;52.520;10.528;2022-11-27T07:25:47;40.62;35.86;51.85;;
76382;Laerm;65202;52.520;10.528;2022-11-27T07:28:34;40.82;35.80;54.40;;
76382;Laerm;65202;52.520;10.528;2022-11-27T07:31:03;39.55;35.82;55.94;;
76382;Laerm;65202;52.520;10.528;2022-11-27T07:33:32;39.29;35.20;46.88;;
76382;Laerm;65202;52.520;10.528;2022-11-27T07:38:51;45.53;35.67;59.45;;
76382;Laerm;65202;52.520;10.528;2022-11-27T07:41:37;44.31;38.31;60.39;;
76382;Laerm;65202;52.520;10.528;2022-11-27T07:44:05;46.13;36.81;60.82;;
76382;Laerm;65202;52.520;10.528;2022-11-27T07:46:41;45.42;35.95;61.27;;
76382;Laerm;65202;52.520;10.528;2022-11-27T07:49:35;47.48;37.26;65.57;;
76382;Laerm;65202;52.520;10.528;2022-11-27T07:52:18;48.64;36.73;61.10;;
76382;Laerm;65202;52.520;10.528;2022-11-27T07:54:47;50.27;36.79;65.40;;
76382;Laerm;65202;52.520;10.528;2022-11-27T07:57:41;42.32;36.34;61.81;;
76382;Laerm;65202;52.520;10.528;2022-11-27T08:00:18;53.00;37.33;80.31;;
76382;Laerm;65202;52.520;10.528;2022-11-27T08:03:10;42.07;36.39;57.90;;
76382;Laerm;65202;52.520;10.528;2022-11-27T08:05:44;42.15;36.49;58.01;;
76382;Laerm;65202;52.520;10.528;2022-11-27T08:08:32;40.88;37.26;53.69;;
76382;Laerm;65202;52.520;10.528;2022-11-27T08:11:02;48.14;38.21;64.29;;
76382;Laerm;65202;52.520;10.528;2022-11-27T08:13:45;46.79;43.84;64.04;;
76382;Laerm;65202;52.520;10.528;2022-11-27T08:16:17;46.51;43.00;50.29;;
76382;Laerm;65202;52.520;10.528;2022-11-27T08:18:59;50.16;43.01;60.39;;
76382;Laerm;65202;52.520;10.528;2022-11-27T08:21:31;46.94;39.87;66.28;;
76382;Laerm;65202;52.520;10.528;2022-11-27T08:24:02;49.86;38.48;66.58;;
76382;Laerm;65202;52.520;10.528;2022-11-27T08:26:31;50.44;40.29;72.27;;
76382;Laerm;65202;52.520;10.528;2022-11-27T08:29:13;51.26;39.91;67.55;;
76382;Laerm;65202;52.520;10.528;2022-11-27T08:31:47;48.70;39.39;68.10;;
76382;Laerm;65202;52.520;10.528;2022-11-27T08:35:05;48.70;40.01;66.81;;
76382;Laerm;65202;52.520;10.528;2022-11-27T08:37:46;46.14;39.08;63.43;;
76382;Laerm;65202;52.520;10.528;2022-11-27T08:40:20;45.41;39.84;58.99;;
76382;Laerm;65202;52.520;10.528;2022-11-27T08:42:54;46.39;40.43;57.18;;
76382;Laerm;65202;52.520;10.528;2022-11-27T08:45:26;46.39;40.91;59.55;;
76382;Laerm;65202;52.520;10.528;2022-11-27T08:48:20;49.46;42.19;62.33;;
76382;Laerm;65202;52.520;10.528;2022-11-27T08:51:30;46.89;39.61;61.75;;
76382;Laerm;65202;52.520;10.528;2022-11-27T08:54:08;45.24;38.89;60.65;;
76382;Laerm;65202;52.520;10.528;2022-11-27T08:56:59;45.81;39.81;58.04;;
76382;Laerm;65202;52.520;10.528;2022-11-27T08:59:32;50.08;39.78;66.81;;
76382;Laerm;65202;52.520;10.528;2022-11-27T09:02:03;63.28;39.14;92.95;;
76382;Laerm;65202;52.520;10.528;2022-11-27T09:04:32;45.30;38.89;62.43;;
76382;Laerm;65202;52.520;10.528;2022-11-27T09:07:03;44.68;38.80;54.05;;
76382;Laerm;65202;52.520;10.528;2022-11-27T09:09:45;46.87;38.75;57.24;;
76382;Laerm;65202;52.520;10.528;2022-11-27T09:12:13;45.05;39.28;56.06;;
76382;Laerm;65202;52.520;10.528;2022-11-27T09:14:46;45.28;38.73;63.26;;
76382;Laerm;65202;52.520;10.528;2022-11-27T09:17:18;45.04;37.86;63.34;;
76382;Laerm;65202;52.520;10.528;2022-11-27T09:19:47;43.86;37.47;60.50;;
76382;Laerm;65202;52.520;10.528;2022-11-27T09:22:17;48.65;38.71;64.63;;
76382;Laerm;65202;52.520;10.528;2022-11-27T09:24:45;45.38;38.35;64.16;;
76382;Laerm;65202;52.520;10.528;2022-11-27T09:27:16;45.11;37.91;64.30;;
76382;Laerm;65202;52.520;10.528;2022-11-27T09:30:13;47.95;38.80;66.60;;
76382;Laerm;65202;52.520;10.528;2022-11-27T09:32:41;43.78;37.75;54.72;;
76382;Laerm;65202;52.520;10.528;2022-11-27T09:35:08;45.43;39.82;60.13;;
76382;Laerm;65202;52.520;10.528;2022-11-27T09:37:43;47.59;39.19;62.40;;
76382;Laerm;65202;52.520;10.528;2022-11-27T09:40:18;50.57;39.29;71.55;;
76382;Laerm;65202;52.520;10.528;2022-11-27T09:43:02;46.39;38.75;59.73;;
76382;Laerm;65202;52.520;10.528;2022-11-27T09:46:02;44.35;37.34;60.82;;
76382;Laerm;65202;52.520;10.528;2022-11-27T09:49:47;50.81;39.55;68.57;;
76382;Laerm;65202;52.520;10.528;2022-11-27T09:57:15;46.34;39.38;58.34;;
76382;Laerm;65202;52.520;10.528;2022-11-27T10:00:35;47.44;40.26;62.54;;
76382;Laerm;65202;52.520;10.528;2022-11-27T10:15:59;44.68;38.96;55.97;;
76382;Laerm;65202;52.520;10.528;2022-11-27T10:23:31;43.08;38.17;57.71;;
76382;Laerm;65202;52.520;10.528;2022-11-27T10:26:30;43.91;38.65;58.70;;
76382;Laerm;65202;52.520;10.528;2022-11-27T10:29:36;44.44;37.95;59.60;;
76382;Laerm;65202;52.520;10.528;2022-11-27T10:32:29;43.19;39.02;57.81;;
76382;Laerm;65202;52.520;10.528;2022-11-27T10:35:27;43.78;38.31;55.29;;
76382;Laerm;65202;52.520;10.528;2022-11-27T10:38:25;42.76;39.23;52.55;;
76382;Laerm;65202;52.520;10.528;2022-11-27T10:41:22;45.13;38.63;58.55;;
76382;Laerm;65202;52.520;10.528;2022-11-27T10:47:19;42.15;37.86;60.03;;
76382;Laerm;65202;52.520;10.528;2022-11-27T10:50:01;55.96;38.64;87.19;;
76382;Laerm;65202;52.520;10.528;2022-11-27T10:52:56;44.20;37.97;71.39;;
76382;Laerm;65202;52.520;10.528;2022-11-27T10:59:12;43.27;38.65;57.78;;
76382;Laerm;65202;52.520;10.528;2022-11-27T11:01:51;42.39;38.51;50.53;;
76382;Laerm;65202;52.520;10.528;2022-11-27T11:04:29;47.98;37.65;66.05;;
76382;Laerm;65202;52.520;10.528;2022-11-27T11:07:55;47.33;38.58;69.21;;
76382;Laerm;65202;52.520;10.528;2022-11-27T11:10:53;51.94;39.57;72.60;;
76382;Laerm;65202;52.520;10.528;2022-11-27T11:14:25;50.87;38.35;68.98;;
76382;Laerm;65202;52.520;10.528;2022-11-27T11:16:53;43.61;38.56;66.72;;
76382;Laerm;65202;52.520;10.528;2022-11-27T11:19:33;44.88;38.96;58.64;;
76382;Laerm;65202;52.520;10.528;2022-11-27T11:22:17;42.66;38.44;64.62;;
76382;Laerm;65202;52.520;10.528;2022-11-27T11:28:18;46.25;39.19;62.54;;
76382;Laerm;65202;52.520;10.528;2022-11-27T11:31:06;42.50;39.18;50.73;;
76382;Laerm;65202;52.520;10.528;2022-11-27T11:33:48;43.68;39.92;56.73;;
76382;Laerm;65202;52.520;10.528;2022-11-27T11:36:25;44.39;40.84;53.40;;
76382;Laerm;65202;52.520;10.528;2022-11-27T11:38:56;48.12;39.41;66.07;;
76382;Laerm;65202;52.520;10.528;2022-11-27T11:41:37;43.66;39.97;52.18;;
76382;Laerm;65202;52.520;10.528;2022-11-27T11:44:45;55.33;40.06;81.79;;
76382;Laerm;65202;52.520;10.528;2022-11-27T11:47:21;56.49;39.33;83.18;;
76382;Laerm;65202;52.520;10.528;2022-11-27T11:53:43;56.23;39.20;77.74;;
76382;Laerm;65202;52.520;10.528;2022-11-27T11:56:31;59.37;39.21;91.20;;
76382;Laerm;65202;52.520;10.528;2022-11-27T11:59:21;45.37;38.00;65.67;;
76382;Laerm;65202;52.520;10.528;2022-11-27T12:14:49;66.66;38.64;101.03;;
76382;Laerm;65202;52.520;10.528;2022-11-27T12:20:48;62.82;38.54;88.18;;
76382;Laerm;65202;52.520;10.528;2022-11-27T12:26:38;42.00;37.40;62.00;;
76382;Laerm;65202;52.520;10.528;2022-11-27T12:42:27;45.45;37.72;62.64;;
76382;Laerm;65202;52.520;10.528;2022-11-27T12:45:13;42.62;38.47;51.85;;
76382;Laerm;65202;52.520;10.528;2022-11-27T12:48:01;43.06;38.28;55.23;;
76382;Laerm;65202;52.520;10.528;2022-11-27T12:50:50;52.08;37.57;73.53;;
76382;Laerm;65202;52.520;10.528;2022-11-27T12:53:28;44.60;38.38;57.72;;
76382;Laerm;65202;52.520;10.528;2022-11-27T12:56:22;41.67;37.86;48.17;;
76382;Laerm;65202;52.520;10.528;2022-11-27T13:05:04;44.16;37.58;60.40;;
76382;Laerm;65202;52.520;10.528;2022-11-27T13:08:03;48.89;37.38;64.98;;
76382;Laerm;65202;52.520;10.528;2022-11-27T13:10:56;46.48;38.48;60.18;;
76382;Laerm;65202;52.520;10.528;2022-11-27T13:13:59;44.34;37.71;58.78;;
76382;Laerm;65202;52.520;10.528;2022-11-27T13:16:37;41.77;38.10;47.88;;
76382;Laerm;65202;52.520;10.528;2022-11-27T13:19:27;46.87;38.05;61.74;;
76382;Laerm;65202;52.520;10.528;2022-11-27T13:22:13;43.50;39.13;66.52;;
76382;Laerm;65202;52.520;10.528;2022-11-27T13:24:58;45.07;39.06;63.59;;
76382;Laerm;65202;52.520;10.528;2022-11-27T13:27:29;49.68;39.13;69.23;;
76382;Laerm;65202;52.520;10.528;2022-11-27T13:30:17;43.58;38.98;56.93;;
76382;Laerm;65202;52.520;10.528;2022-11-27T13:33:36;45.78;39.24;61.56;;
76382;Laerm;65202;52.520;10.528;2022-11-27T13:36:36;44.99;38.70;60.99;;
76382;Laerm;65202;52.520;10.528;2022-11-27T13:39:05;44.37;39.57;59.74;;
76382;Laerm;65202;52.520;10.528;2022-11-27T13:41:39;47.30;38.50;65.16;;
76382;Laerm;65202;52.520;10.528;2022-11-27T13:44:25;41.85;37.41;56.48;;
76382;Laerm;65202;52.520;10.528;2022-11-27T13:47:13;42.22;38.35;54.17;;
76382;Laerm;65202;52.520;10.528;2022-11-27T13:52:32;42.81;38.67;53.57;;
76382;Laerm;65202;52.520;10.528;2022-11-27T13:55:07;43.03;39.25;50.15;;
76382;Laerm;65202;52.520;10.528;2022-11-27T13:57:54;47.75;39.13;67.86;;
76382;Laerm;65202;52.520;10.528;2022-11-27T14:00:43;44.94;39.87;62.59;;
76382;Laerm;65202;52.520;10.528;2022-11-27T14:03:27;45.96;39.07;62.71;;
76382;Laerm;65202;52.520;10.528;2022-11-27T14:05:56;51.30;38.75;69.16;;
76382;Laerm;65202;52.520;10.528;2022-11-27T14:08:32;45.86;38.97;62.29;;
76382;Laerm;65202;52.520;10.528;2022-11-27T14:11:08;45.67;38.17;60.49;;
76382;Laerm;65202;52.520;10.528;2022-11-27T14:13:45;45.14;38.82;66.56;;
76382;Laerm;65202;52.520;10.528;2022-11-27T14:16:28;49.65;40.17;68.82;;
76382;Laerm;65202;52.520;10.528;2022-11-27T14:19:03;47.51;39.46;70.22;;
76382;Laerm;65202;52.520;10.528;2022-11-27T14:24:35;46.14;39.83;63.90;;
76382;Laerm;65202;52.520;10.528;2022-11-27T14:27:18;46.80;39.75;65.41;;
76382;Laerm;65202;52.520;10.528;2022-11-27T14:29:46;42.63;39.76;52.54;;
76382;Laerm;65202;52.520;10.528;2022-11-27T14:32:16;42.77;38.22;55.94;;
76382;Laerm;65202;52.520;10.528;2022-11-27T14:34:53;43.25;39.86;54.70;;
76382;Laerm;65202;52.520;10.528;2022-11-27T14:37:25;43.32;38.37;61.37;;
76382;Laerm;65202;52.520;10.528;2022-11-27T14:39:54;50.39;39.72;66.94;;
76382;Laerm;65202;52.520;10.528;2022-11-27T14:42:26;42.43;38.23;53.16;;
76382;Laerm;65202;52.520;10.528;2022-11-27T14:45:07;46.66;40.33;60.95;;
76382;Laerm;65202;52.520;10.528;2022-11-27T14:47:41;46.19;38.99;62.45;;
76382;Laerm;65202;52.520;10.528;2022-11-27T14:50:13;42.93;39.51;49.24;;
76382;Laerm;65202;52.520;10.528;2022-11-27T14:52:45;41.99;38.05;55.49;;
76382;Laerm;65202;52.520;10.528;2022-11-27T14:55:17;43.68;39.35;57.20;;
76382;Laerm;65202;52.520;10.528;2022-11-27T14:57:47;46.42;39.95;65.87;;
76382;Laerm;65202;52.520;10.528;2022-11-27T15:00:25;48.91;40.26;62.49;;
76382;Laerm;65202;52.520;10.528;2022-11-27T15:02:53;43.16;40.03;51.35;;
76382;Laerm;65202;52.520;10.528;2022-11-27T15:05:24;46.91;39.60;59.50;;
76382;Laerm;65202;52.520;10.528;2022-11-27T15:07:56;44.20;39.96;59.57;;
76382;Laerm;65202;52.520;10.528;2022-11-27T15:13:23;50.08;40.39;63.71;;
76382;Laerm;65202;52.520;10.528;2022-11-27T15:16:03;43.32;39.22;54.60;;
76382;Laerm;65202;52.520;10.528;2022-11-27T15:18:35;42.99;38.45;52.37;;
76382;Laerm;65202;52.520;10.528;2022-11-27T15:21:21;42.08;38.37;49.41;;
76382;Laerm;65202;52.520;10.528;2022-11-27T15:23:55;49.33;38.49;62.09;;
76382;Laerm;65202;52.520;10.528;2022-11-27T15:26:37;44.28;39.45;52.30;;
76382;Laerm;65202;52.520;10.528;2022-11-27T15:29:34;42.76;38.65;57.19;;
76382;Laerm;65202;52.520;10.528;2022-11-27T15:32:43;43.71;38.09;58.95;;
76382;Laerm;65202;52.520;10.528;2022-11-27T15:35:26;43.63;37.99;59.49;;
76382;Laerm;65202;52.520;10.528;2022-11-27T15:38:30;43.45;39.40;54.47;;
76382;Laerm;65202;52.520;10.528;2022-11-27T15:40:58;43.83;38.37;64.10;;
76382;Laerm;65202;52.520;10.528;2022-11-27T15:43:27;42.21;38.81;47.77;;
76382;Laerm;65202;52.520;10.528;2022-11-27T15:45:54;43.15;38.79;51.50;;
76382;Laerm;65202;52.520;10.528;2022-11-27T15:48:21;44.09;39.57;55.19;;
76382;Laerm;65202;52.520;10.528;2022-11-27T15:50:51;48.90;39.80;61.20;;
76382;Laerm;65202;52.520;10.528;2022-11-27T15:53:18;44.11;38.41;62.22;;
76382;Laerm;65202;52.520;10.528;2022-11-27T15:55:45;44.74;38.31;56.90;;
76382;Laerm;65202;52.520;10.528;2022-11-27T15:58:14;41.43;38.20;46.14;;
76382;Laerm;65202;52.520;10.528;2022-11-27T16:00:41;41.00;38.02;46.11;;
76382;Laerm;65202;52.520;10.528;2022-11-27T16:03:09;45.67;38.07;61.17;;
76382;Laerm;65202;52.520;10.528;2022-11-27T16:05:36;41.75;37.26;59.16;;
76382;Laerm;65202;52.520;10.528;2022-11-27T16:08:04;43.14;37.56;67.25;;
76382;Laerm;65202;52.520;10.528;2022-11-27T16:10:33;45.50;37.88;70.29;;
76382;Laerm;65202;52.520;10.528;2022-11-27T16:13:10;41.78;37.86;52.97;;
76382;Laerm;65202;52.520;10.528;2022-11-27T16:15:37;43.10;37.98;56.37;;
76382;Laerm;65202;52.520;10.528;2022-11-27T16:18:05;46.02;38.02;62.36;;
76382;Laerm;65202;52.520;10.528;2022-11-27T16:20:35;41.04;37.46;53.91;;
76382;Laerm;65202;52.520;10.528;2022-11-27T16:23:02;46.52;37.94;63.92;;
76382;Laerm;65202;52.520;10.528;2022-11-27T16:25:40;45.44;37.26;60.95;;
76382;Laerm;65202;52.520;10.528;2022-11-27T16:28:09;49.52;37.71;66.65;;
76382;Laerm;65202;52.520;10.528;2022-11-27T16:30:39;47.51;38.02;64.93;;
76382;Laerm;65202;52.520;10.528;2022-11-27T16:33:07;45.97;37.83;75.59;;
76382;Laerm;65202;52.520;10.528;2022-11-27T16:35:35;40.96;37.50;53.52;;
76382;Laerm;65202;52.520;10.528;2022-11-27T16:38:03;44.50;37.85;60.39;;
76382;Laerm;65202;52.520;10.528;2022-11-27T16:40:42;50.62;37.69;69.49;;
76382;Laerm;65202;52.520;10.528;2022-11-27T16:43:13;46.41;38.00;65.00;;
76382;Laerm;65202;52.520;10.528;2022-11-27T16:45:40;44.85;38.29;73.33;;
76382;Laerm;65202;52.520;10.528;2022-11-27T16:48:08;42.41;38.30;55.45;;
76382;Laerm;65202;52.520;10.528;2022-11-27T16:50:35;43.61;37.61;58.16;;
76382;Laerm;65202;52.520;10.528;2022-11-27T16:53:03;41.82;38.26;52.77;;